Anvik Airport Anvik US
ICAO: PANV
IATA:
Category: Medium
Scheduled Services:

Elevation: 291 ft
TransAlt. 18000 ft.

Airport Communications:
AWOS 3:133.55
ANCHORAGE CNTR:135.7
KENAI RDO:122.4
CTAF/UNICOM:122.7

PANV Zoom In..

If you have problems with the map follow the link
https://www.worldairports.se/pages/airport.php?
ICAO=PANV

Runways:

(A) RW 17 length 4000 ft width 75 ft
---- / hdg 172

(B) RW 35 length 4000 ft width 75 ft
---- / hdg 352

Location; PANV
Day. 14 / Time. 10.56 Zulu
* Altimeter: 29.74
* Temperature: -09° c. -15.8°f.
* Wind from: 030° Speed 17 kn with Gusts up to 24 kn.
Dewpoint: -12° c.
Visibility: 9 Statute Miles.
Clouds: Broken 1600 ft.
Clouds: Overcast 3600 ft.
Conditions: Light Snow.

PANV 141056Z AUTO 03017G24KT 9SM -SN BKN016 OVC036 M09/M12 A2974 RMK AO2 SLP095 P0000 T10941122 FZRANO


Wind From 030°
Speed 17 kn.

 
 
jpsmedia.com for Web Design worldairports.se 2018   terms of use